Time;durP1;ratioP1;P1;durP2;ratioP2;P2;SDS_P1;SDS_P2;PMS_P1;PMS_P2;Temp;Humidity;BMP_temperature;BMP_pressure;BME280_temperature;BME280_humidity;BME280_pressure;Samples;Min_cycle;Max_cycle;Signal;HPM_P1;HPM_P2
2022/05/14 00:00:36;;;;;;;;;;;18.00;99.90;;;;;;4973825;28;19910;-86
2022/05/14 00:03:02;;;;;;;;;;;18.00;99.90;;;;;;4956862;28;19910;-86
2022/05/14 00:05:28;;;;;;;;;;;18.00;99.90;;;;;;4957006;28;19910;-86
2022/05/14 00:07:54;;;;;;;;;;;18.10;99.90;;;;;;4956794;28;19945;-86
2022/05/14 00:10:22;;;;;;;;;;;18.10;99.90;;;;;;4956713;28;19983;-86
2022/05/14 00:13:05;;;;;;;;;;;18.10;99.90;;;;;;4973871;28;19918;-86
2022/05/14 00:15:41;;;;;;;;;;;18.10;99.90;;;;;;4956532;28;19910;-86
2022/05/14 00:18:08;;;;;;;;;;;18.10;99.90;;;;;;4973953;28;19910;-85
2022/05/14 00:20:36;;;;;;;;;;;18.10;99.90;;;;;;4973915;28;20397;-86
2022/05/14 00:23:02;;;;;;;;;;;18.10;99.90;;;;;;4973840;28;20499;-85
2022/05/14 00:25:27;;;;;;;;;;;18.10;99.90;;;;;;4974008;28;20412;-86
2022/05/14 00:27:53;;;;;;;;;;;18.10;99.90;;;;;;4956316;28;20001;-86
2022/05/14 00:30:20;;;;;;;;;;;18.00;99.90;;;;;;4973883;28;19957;-86
2022/05/14 00:32:47;;;;;;;;;;;18.00;99.90;;;;;;4956507;28;19954;-86
2022/05/14 00:35:12;;;;;;;;;;;18.00;99.90;;;;;;4973691;28;19921;-85
2022/05/14 00:37:38;;;;;;;;;;;17.90;99.90;;;;;;4973774;28;20334;-86
2022/05/14 00:40:06;;;;;;;;;;;17.90;99.90;;;;;;4973735;28;20282;-85
2022/05/14 00:42:32;;;;;;;;;;;17.90;99.90;;;;;;4955827;28;20001;-86
2022/05/14 00:44:58;;;;;;;;;;;17.80;99.90;;;;;;4973560;28;20093;-86
2022/05/14 00:47:23;;;;;;;;;;;17.80;99.90;;;;;;4973789;28;20367;-86
2022/05/14 00:49:49;;;;;;;;;;;17.80;99.90;;;;;;4955946;28;19910;-86
2022/05/14 00:52:17;;;;;;;;;;;17.80;99.90;;;;;;4988943;28;20330;-85
2022/05/14 00:55:00;;;;;;;;;;;17.80;99.90;;;;;;4992497;28;20378;-86
2022/05/14 00:57:26;;;;;;;;;;;17.80;99.90;;;;;;4992733;28;20321;-85
2022/05/14 00:59:53;;;;;;;;;;;17.90;99.90;;;;;;4975253;28;20004;-86
2022/05/14 01:02:19;;;;;;;;;;;17.90;99.90;;;;;;4992746;28;19918;-86
2022/05/14 01:04:45;;;;;;;;;;;17.90;99.90;;;;;;4992727;28;20397;-86
2022/05/14 01:07:15;;;;;;;;;;;17.90;99.90;;;;;;4992314;28;19910;-86
2022/05/14 01:09:43;;;;;;;;;;;17.90;99.90;;;;;;4992112;28;20370;-86
2022/05/14 01:12:08;;;;;;;;;;;18.00;99.90;;;;;;4991869;28;19909;-86
2022/05/14 01:14:34;;;;;;;;;;;17.90;99.90;;;;;;4974522;28;19916;-86
2022/05/14 01:17:00;;;;;;;;;;;18.00;99.90;;;;;;4973054;28;20325;-86
2022/05/14 01:19:26;;;;;;;;;;;17.90;99.90;;;;;;4992229;28;19909;-86
2022/05/14 01:22:07;;;;;;;;;;;18.00;99.90;;;;;;4974658;28;19922;-86
2022/05/14 01:27:31;;;;;;;;;;;17.90;99.90;;;;;;4992128;28;19926;-86
2022/05/14 01:29:56;;;;;;;;;;;17.90;99.90;;;;;;4992073;28;19914;-86
2022/05/14 01:32:22;;;;;;;;;;;17.80;99.90;;;;;;4992042;28;19914;-86
2022/05/14 01:34:47;;;;;;;;;;;17.80;99.90;;;;;;4992070;28;20389;-86
2022/05/14 01:37:13;;;;;;;;;;;17.70;99.90;;;;;;4974542;28;20520;-85
2022/05/14 01:39:38;;;;;;;;;;;17.70;99.90;;;;;;4991878;28;19916;-86
2022/05/14 01:42:04;;;;;;;;;;;17.70;99.90;;;;;;4991622;28;19953;-85
2022/05/14 01:44:30;;;;;;;;;;;17.60;99.90;;;;;;4991736;28;19909;-86
2022/05/14 01:46:56;;;;;;;;;;;17.60;99.90;;;;;;4991280;28;20367;-86
2022/05/14 01:49:21;;;;;;;;;;;17.60;99.90;;;;;;4991480;28;20373;-86
2022/05/14 01:51:47;;;;;;;;;;;17.60;99.90;;;;;;4979290;28;20343;-87
2022/05/14 01:54:12;;;;;;;;;;;17.50;99.90;;;;;;4972609;28;19933;-86
2022/05/14 01:56:38;;;;;;;;;;;17.50;99.90;;;;;;4954663;28;19914;-86
2022/05/14 01:59:03;;;;;;;;;;;17.40;99.90;;;;;;4954704;28;20045;-87
2022/05/14 02:01:31;;;;;;;;;;;17.40;99.90;;;;;;4971998;28;19918;-86
2022/05/14 02:03:57;;;;;;;;;;;17.30;99.90;;;;;;4972046;28;19910;-86
2022/05/14 02:06:24;;;;;;;;;;;17.30;99.90;;;;;;4954606;28;19917;-87
2022/05/14 02:08:50;;;;;;;;;;;17.30;99.90;;;;;;4971983;28;19910;-86
2022/05/14 02:11:15;;;;;;;;;;;17.20;99.90;;;;;;4954758;28;19917;-87
2022/05/14 02:13:41;;;;;;;;;;;17.20;99.90;;;;;;4972177;28;19911;-86
2022/05/14 02:16:08;;;;;;;;;;;17.20;99.90;;;;;;4973685;28;19910;-87
2022/05/14 02:18:34;;;;;;;;;;;17.20;99.90;;;;;;4968087;28;20510;-88
2022/05/14 02:21:00;;;;;;;;;;;17.20;99.90;;;;;;4972491;28;20012;-86
2022/05/14 02:23:25;;;;;;;;;;;17.10;99.90;;;;;;4972415;28;20006;-87
2022/05/14 02:25:51;;;;;;;;;;;17.10;99.90;;;;;;4954431;28;19956;-85
2022/05/14 02:28:17;;;;;;;;;;;17.10;99.90;;;;;;4971864;28;19965;-87
2022/05/14 02:30:42;;;;;;;;;;;17.00;99.90;;;;;;4971645;28;20367;-86
2022/05/14 02:33:08;;;;;;;;;;;17.00;99.90;;;;;;4971891;28;19911;-86
2022/05/14 02:35:34;;;;;;;;;;;17.00;99.90;;;;;;4971738;28;20375;-87
2022/05/14 02:37:59;;;;;;;;;;;17.00;99.90;;;;;;4971668;28;20525;-86
2022/05/14 02:40:25;;;;;;;;;;;17.00;99.90;;;;;;4971586;28;19938;-87
2022/05/14 02:42:52;;;;;;;;;;;17.00;99.90;;;;;;4971199;28;20013;-87
2022/05/14 02:45:18;;;;;;;;;;;17.00;99.90;;;;;;4971473;28;20375;-86
2022/05/14 02:47:43;;;;;;;;;;;16.90;99.90;;;;;;4971601;28;19957;-86
2022/05/14 02:50:09;;;;;;;;;;;16.90;99.90;;;;;;4954460;28;19977;-85
2022/05/14 02:52:34;;;;;;;;;;;16.80;99.90;;;;;;4989268;28;19922;-86
2022/05/14 02:55:00;;;;;;;;;;;16.80;99.90;;;;;;4973003;28;19917;-86
2022/05/14 02:57:26;;;;;;;;;;;16.80;99.90;;;;;;4972883;28;19917;-86
2022/05/14 02:59:51;;;;;;;;;;;16.70;99.90;;;;;;4972843;28;19968;-87
2022/05/14 03:02:17;;;;;;;;;;;16.70;99.90;;;;;;4991372;28;19946;-86
2022/05/14 03:04:44;;;;;;;;;;;16.70;99.90;;;;;;4971820;28;19917;-86
2022/05/14 03:07:10;;;;;;;;;;;16.70;99.90;;;;;;4971858;28;19973;-86
2022/05/14 03:09:36;;;;;;;;;;;16.70;99.90;;;;;;4972852;28;19945;-86
2022/05/14 03:12:02;;;;;;;;;;;16.60;99.90;;;;;;4975603;28;19961;-85
2022/05/14 03:14:28;;;;;;;;;;;16.60;99.90;;;;;;4975707;28;19914;-86
2022/05/14 03:16:54;;;;;;;;;;;16.60;99.90;;;;;;4957988;28;19917;-86
2022/05/14 03:19:19;;;;;;;;;;;16.60;99.90;;;;;;4975433;28;20009;-85
2022/05/14 03:21:45;;;;;;;;;;;16.60;99.90;;;;;;4975398;28;19918;-85
2022/05/14 03:24:11;;;;;;;;;;;16.50;99.90;;;;;;4975559;28;19918;-85
2022/05/14 03:26:37;;;;;;;;;;;16.50;99.90;;;;;;4992683;28;19910;-86
2022/05/14 03:29:03;;;;;;;;;;;16.50;99.90;;;;;;4994111;28;19910;-85
2022/05/14 03:31:29;;;;;;;;;;;16.50;99.90;;;;;;4994607;28;20472;-86
2022/05/14 03:33:55;;;;;;;;;;;16.50;99.90;;;;;;4976127;28;19996;-86
2022/05/14 03:36:21;;;;;;;;;;;16.40;99.90;;;;;;4993869;28;20021;-85
2022/05/14 03:38:46;;;;;;;;;;;16.40;99.90;;;;;;4993833;28;19914;-86
2022/05/14 03:41:12;;;;;;;;;;;16.40;99.90;;;;;;4993652;28;19960;-86
2022/05/14 03:43:38;;;;;;;;;;;16.40;99.90;;;;;;4968953;28;19921;-86
2022/05/14 03:46:04;;;;;;;;;;;16.40;99.90;;;;;;4955656;28;19906;-86
2022/05/14 03:48:30;;;;;;;;;;;16.40;99.90;;;;;;4975210;28;20021;-83
2022/05/14 03:50:55;;;;;;;;;;;16.40;99.90;;;;;;4979634;28;19918;-86
2022/05/14 03:53:22;;;;;;;;;;;16.40;99.90;;;;;;4976603;28;19914;-92
2022/05/14 03:55:47;;;;;;;;;;;16.40;99.90;;;;;;4994448;28;20002;-84
2022/05/14 03:58:13;;;;;;;;;;;16.40;99.90;;;;;;4996388;28;19953;-92
2022/05/14 04:00:38;;;;;;;;;;;16.40;99.90;;;;;;4977395;28;20120;-88
2022/05/14 04:03:04;;;;;;;;;;;16.40;99.90;;;;;;4987573;28;19914;-86
2022/05/14 04:05:30;;;;;;;;;;;16.40;99.90;;;;;;4994077;28;19910;-87
2022/05/14 04:07:55;;;;;;;;;;;16.40;99.90;;;;;;4994070;28;20016;-86
2022/05/14 04:10:21;;;;;;;;;;;16.30;99.90;;;;;;4993398;28;19910;-86
2022/05/14 04:12:46;;;;;;;;;;;16.30;99.90;;;;;;4994005;28;19917;-87
2022/05/14 04:15:13;;;;;;;;;;;16.30;99.90;;;;;;4975795;28;20255;-87
2022/05/14 04:17:38;;;;;;;;;;;16.30;99.90;;;;;;4975861;28;20402;-86
2022/05/14 04:20:04;;;;;;;;;;;16.30;99.90;;;;;;4993185;28;19952;-86
2022/05/14 04:22:30;;;;;;;;;;;16.30;99.90;;;;;;4962666;28;19961;-86
2022/05/14 04:24:55;;;;;;;;;;;16.30;99.90;;;;;;4993022;28;19949;-89
2022/05/14 04:27:21;;;;;;;;;;;16.30;99.90;;;;;;4994223;28;19913;-87
2022/05/14 04:29:47;;;;;;;;;;;16.30;99.90;;;;;;4992926;28;19913;-86
2022/05/14 04:32:12;;;;;;;;;;;16.40;99.90;;;;;;4975345;28;19914;-87
2022/05/14 04:34:38;;;;;;;;;;;16.40;99.90;;;;;;4988194;28;19910;-87
2022/05/14 04:37:04;;;;;;;;;;;16.40;99.90;;;;;;4993419;28;19909;-87
2022/05/14 04:39:32;;;;;;;;;;;16.50;99.90;;;;;;4976275;28;19945;-88
2022/05/14 04:41:59;;;;;;;;;;;16.60;99.90;;;;;;4993144;28;20501;-86
2022/05/14 04:44:24;;;;;;;;;;;16.60;99.90;;;;;;4993237;28;20401;-86
2022/05/14 04:46:50;;;;;;;;;;;16.60;99.90;;;;;;4992763;28;19909;-86
2022/05/14 04:49:16;;;;;;;;;;;16.60;99.90;;;;;;4992631;28;19910;-86
2022/05/14 04:51:42;;;;;;;;;;;16.60;99.90;;;;;;4977188;28;20471;-86
2022/05/14 04:54:07;;;;;;;;;;;16.70;99.90;;;;;;4956439;28;19914;-86
2022/05/14 04:56:33;;;;;;;;;;;16.70;99.90;;;;;;4973458;28;20387;-86
2022/05/14 04:58:58;;;;;;;;;;;16.70;99.90;;;;;;4956262;28;20009;-86
2022/05/14 05:01:24;;;;;;;;;;;16.80;99.90;;;;;;4973518;28;19967;-86
2022/05/14 05:03:49;;;;;;;;;;;16.80;99.90;;;;;;4973395;28;19910;-86
2022/05/14 05:06:18;;;;;;;;;;;16.80;99.90;;;;;;4973207;28;19943;-90
2022/05/14 05:08:43;;;;;;;;;;;16.90;99.90;;;;;;4973010;28;19910;-86
2022/05/14 05:11:09;;;;;;;;;;;16.90;99.90;;;;;;4975152;28;20290;-86
2022/05/14 05:13:35;;;;;;;;;;;17.00;99.90;;;;;;4975892;28;19929;-86
2022/05/14 05:16:01;;;;;;;;;;;17.00;99.90;;;;;;4983508;28;19914;-86
2022/05/14 05:18:26;;;;;;;;;;;17.10;99.90;;;;;;4975290;28;19980;-86
2022/05/14 05:20:54;;;;;;;;;;;17.10;99.90;;;;;;4955526;28;19989;-85
2022/05/14 05:23:21;;;;;;;;;;;17.20;99.90;;;;;;4936536;29;19910;-87
2022/05/14 05:25:46;;;;;;;;;;;17.20;99.90;;;;;;4971068;28;19917;-86
2022/05/14 05:28:12;;;;;;;;;;;17.20;99.90;;;;;;4972690;28;19914;-86
2022/05/14 05:30:39;;;;;;;;;;;17.20;99.90;;;;;;4973303;28;19917;-86
2022/05/14 05:33:08;;;;;;;;;;;17.10;99.90;;;;;;4955126;28;20287;-87
2022/05/14 05:35:34;;;;;;;;;;;17.20;99.90;;;;;;4972707;28;19911;-87
2022/05/14 05:37:59;;;;;;;;;;;17.30;99.90;;;;;;4972780;28;19910;-87
2022/05/14 05:40:25;;;;;;;;;;;17.40;99.90;;;;;;4954713;28;19921;-87
2022/05/14 05:42:50;;;;;;;;;;;17.40;99.90;;;;;;4968591;28;19918;-86
2022/05/14 05:45:16;;;;;;;;;;;17.40;99.90;;;;;;4955062;28;19917;-87
2022/05/14 05:47:42;;;;;;;;;;;17.40;99.90;;;;;;4972007;28;19910;-88
2022/05/14 05:50:09;;;;;;;;;;;17.50;99.90;;;;;;4972003;28;19916;-87
2022/05/14 05:52:34;;;;;;;;;;;17.70;99.90;;;;;;4989961;28;19921;-87
2022/05/14 05:57:44;;;;;;;;;;;17.90;99.90;;;;;;4992289;28;19952;-88
2022/05/14 06:00:12;;;;;;;;;;;18.00;99.90;;;;;;4974536;28;19953;-87
2022/05/14 06:02:38;;;;;;;;;;;18.00;99.90;;;;;;4974256;28;19924;-87
2022/05/14 06:05:05;;;;;;;;;;;18.10;99.90;;;;;;4991731;28;19910;-89
2022/05/14 06:07:31;;;;;;;;;;;18.30;99.90;;;;;;4974366;28;20322;-87
2022/05/14 06:09:57;;;;;;;;;;;18.30;99.90;;;;;;4973932;28;19934;-86
2022/05/14 06:12:23;;;;;;;;;;;18.30;99.90;;;;;;4991438;28;19910;-86
2022/05/14 06:14:49;;;;;;;;;;;18.30;99.90;;;;;;4991377;28;19914;-87
2022/05/14 06:17:15;;;;;;;;;;;18.30;99.90;;;;;;4973829;28;20009;-86
2022/05/14 06:19:42;;;;;;;;;;;18.30;99.90;;;;;;4991293;28;19916;-88
2022/05/14 06:22:07;;;;;;;;;;;18.20;99.90;;;;;;4991070;28;19918;-87
2022/05/14 06:24:35;;;;;;;;;;;18.20;99.90;;;;;;4985255;28;19921;-87
2022/05/14 06:27:00;;;;;;;;;;;18.20;99.90;;;;;;4991014;28;19916;-87
2022/05/14 06:29:26;;;;;;;;;;;18.30;99.90;;;;;;4987296;28;19921;-86
2022/05/14 06:31:51;;;;;;;;;;;18.30;99.90;;;;;;4990763;28;19916;-87
2022/05/14 06:34:17;;;;;;;;;;;18.30;99.90;;;;;;4990764;28;19916;-87
2022/05/14 06:36:42;;;;;;;;;;;18.30;99.90;;;;;;4973446;28;20056;-85
2022/05/14 06:39:08;;;;;;;;;;;18.30;99.90;;;;;;4991118;28;19957;-87
2022/05/14 06:41:34;;;;;;;;;;;18.40;99.90;;;;;;4990966;28;19914;-85
2022/05/14 06:43:59;;;;;;;;;;;18.50;99.90;;;;;;4991001;28;20429;-87
2022/05/14 06:46:25;;;;;;;;;;;18.60;99.90;;;;;;4991014;28;20317;-86
2022/05/14 06:48:50;;;;;;;;;;;18.60;99.90;;;;;;4990757;28;19910;-85
2022/05/14 06:51:18;;;;;;;;;;;18.50;99.90;;;;;;4990643;28;20006;-85
2022/05/14 06:53:44;;;;;;;;;;;18.50;99.90;;;;;;4973770;28;19927;-86
2022/05/14 06:56:11;;;;;;;;;;;18.50;99.90;;;;;;4975148;28;19910;-85
2022/05/14 06:58:38;;;;;;;;;;;18.70;99.90;;;;;;4990853;28;20000;-85
2022/05/14 07:01:04;;;;;;;;;;;18.90;99.90;;;;;;4994521;28;19910;-85
2022/05/14 07:09:00;;;;;;;;;;;19.20;99.90;;;;;;4990821;28;19917;-86
2022/05/14 07:11:26;;;;;;;;;;;19.30;99.90;;;;;;4990574;28;19910;-85
2022/05/14 07:13:52;;;;;;;;;;;19.40;99.90;;;;;;4990881;28;19917;-84
2022/05/14 07:16:17;;;;;;;;;;;19.60;99.90;;;;;;4990699;28;19969;-84
2022/05/14 07:18:43;;;;;;;;;;;19.70;99.90;;;;;;4990516;28;19969;-85
2022/05/14 07:21:09;;;;;;;;;;;19.80;99.90;;;;;;4990452;28;19918;-85
2022/05/14 07:23:34;;;;;;;;;;;19.90;99.90;;;;;;4989604;28;19910;-85
2022/05/14 07:26:01;;;;;;;;;;;20.00;99.90;;;;;;4995814;28;19910;-84
2022/05/14 07:28:26;;;;;;;;;;;20.00;99.90;;;;;;4991681;28;20147;-85
2022/05/14 07:30:52;;;;;;;;;;;20.10;99.90;;;;;;4994111;28;20181;-85
2022/05/14 07:33:18;;;;;;;;;;;20.20;99.90;;;;;;4973340;28;19910;-85
2022/05/14 07:35:43;;;;;;;;;;;20.20;99.90;;;;;;4989694;28;20166;-85
2022/05/14 07:38:09;;;;;;;;;;;20.30;99.90;;;;;;4972391;28;19913;-86
2022/05/14 07:40:36;;;;;;;;;;;20.40;99.90;;;;;;4990149;28;19976;-85
2022/05/14 07:43:03;;;;;;;;;;;20.50;99.90;;;;;;4996353;28;19922;-85
2022/05/14 07:45:33;;;;;;;;;;;20.70;99.90;;;;;;4997997;28;20101;-85
2022/05/14 07:48:00;;;;;;;;;;;20.80;99.90;;;;;;4994209;28;19912;-85
2022/05/14 07:50:26;;;;;;;;;;;20.90;99.90;;;;;;4983030;28;19964;-85
2022/05/14 07:52:52;;;;;;;;;;;20.90;99.90;;;;;;4991924;28;19918;-85
2022/05/14 07:55:18;;;;;;;;;;;21.00;99.90;;;;;;4976271;28;19914;-85
2022/05/14 07:57:43;;;;;;;;;;;21.00;99.90;;;;;;5003271;28;19913;-85
2022/05/14 08:00:09;;;;;;;;;;;21.00;99.90;;;;;;5003311;28;20094;-85
2022/05/14 08:02:35;;;;;;;;;;;21.20;99.90;;;;;;5003393;28;20213;-85
2022/05/14 08:05:05;;;;;;;;;;;21.30;99.90;;;;;;5003300;28;19906;-85
2022/05/14 08:07:31;;;;;;;;;;;21.40;99.90;;;;;;5000198;28;20193;-87
2022/05/14 08:09:57;;;;;;;;;;;21.50;99.90;;;;;;4998143;28;19905;-85
2022/05/14 08:12:22;;;;;;;;;;;21.60;99.90;;;;;;5004236;28;19929;-86
2022/05/14 08:14:48;;;;;;;;;;;21.60;99.90;;;;;;5000285;28;20404;-85
2022/05/14 08:17:13;;;;;;;;;;;21.80;99.90;;;;;;4999776;28;19944;-84
2022/05/14 08:19:39;;;;;;;;;;;21.90;99.90;;;;;;4979555;28;20389;-86
2022/05/14 08:24:49;;;;;;;;;;;22.10;99.90;;;;;;4992206;28;19921;-85
2022/05/14 08:27:16;;;;;;;;;;;22.10;99.90;;;;;;4991835;28;19910;-85
2022/05/14 08:29:44;;;;;;;;;;;22.10;99.90;;;;;;4974891;28;20004;-86
2022/05/14 08:32:09;;;;;;;;;;;22.10;99.90;;;;;;4992369;28;19956;-86
2022/05/14 08:34:35;;;;;;;;;;;22.20;99.90;;;;;;4991787;28;19910;-86
2022/05/14 08:37:00;;;;;;;;;;;22.30;99.90;;;;;;4991494;28;20013;-86
2022/05/14 08:39:28;;;;;;;;;;;22.40;99.90;;;;;;4993520;28;19917;-85
2022/05/14 08:41:54;;;;;;;;;;;22.50;99.90;;;;;;4992520;28;20106;-85
2022/05/14 08:44:21;;;;;;;;;;;22.60;99.90;;;;;;4975092;28;19914;-85
2022/05/14 08:46:52;;;;;;;;;;;22.70;99.90;;;;;;4992608;28;19921;-84
2022/05/14 08:49:22;;;;;;;;;;;22.70;99.90;;;;;;4998608;28;19905;-85
2022/05/14 08:51:50;;;;;;;;;;;22.90;99.90;;;;;;4991856;28;20013;-85
2022/05/14 08:54:16;;;;;;;;;;;23.00;99.90;;;;;;4992575;28;19910;-89
2022/05/14 08:56:42;;;;;;;;;;;23.00;99.90;;;;;;4991401;28;20286;-88
2022/05/14 08:59:19;;;;;;;;;;;23.20;99.90;;;;;;4992130;28;20005;-88
2022/05/14 09:01:45;;;;;;;;;;;23.30;99.90;;;;;;4999893;28;19924;-87
2022/05/14 09:04:13;;;;;;;;;;;23.50;99.90;;;;;;4980298;28;20290;-88
2022/05/14 09:06:39;;;;;;;;;;;23.70;99.90;;;;;;4992063;28;20414;-93
2022/05/14 09:09:06;;;;;;;;;;;23.90;99.90;;;;;;4973385;28;19917;-90
2022/05/14 09:11:38;;;;;;;;;;;24.10;99.90;;;;;;4973964;28;19909;-90
2022/05/14 09:14:06;;;;;;;;;;;24.20;99.90;;;;;;4973998;28;19910;-91
2022/05/14 09:16:34;;;;;;;;;;;24.40;99.90;;;;;;4973150;28;19910;-89
2022/05/14 09:19:00;;;;;;;;;;;24.60;99.90;;;;;;5001232;28;19953;-88
2022/05/14 09:21:27;;;;;;;;;;;24.60;99.90;;;;;;4995328;28;19914;-91
2022/05/14 09:23:54;;;;;;;;;;;24.60;99.90;;;;;;4979322;28;19910;-91
2022/05/14 09:26:49;;;;;;;;;;;24.60;99.90;;;;;;4995003;28;20429;-91
2022/05/14 09:29:21;;;;;;;;;;;24.60;99.90;;;;;;4962070;28;19917;-91
2022/05/14 09:31:50;;;;;;;;;;;24.50;99.90;;;;;;4990769;28;20226;-90
2022/05/14 09:34:17;;;;;;;;;;;24.50;99.90;;;;;;4990487;28;20024;-90
2022/05/14 09:36:44;;;;;;;;;;;24.40;99.90;;;;;;4972323;28;19916;-91
2022/05/14 09:39:18;;;;;;;;;;;24.30;99.90;;;;;;4976546;28;19953;-89
2022/05/14 09:41:49;;;;;;;;;;;24.40;99.90;;;;;;4985217;28;19914;-89
2022/05/14 09:44:21;;;;;;;;;;;24.30;99.90;;;;;;4982365;28;19906;-87
2022/05/14 09:46:47;;;;;;;;;;;24.30;99.90;;;;;;4958094;28;19914;-89
2022/05/14 09:49:18;;;;;;;;;;;24.50;99.90;;;;;;4959214;28;19914;-90
2022/05/14 09:51:52;;;;;;;;;;;24.60;99.90;;;;;;4988765;28;19925;-88
2022/05/14 09:54:18;;;;;;;;;;;24.60;99.90;;;;;;5000879;28;19906;-89
2022/05/14 09:56:44;;;;;;;;;;;24.60;99.90;;;;;;4978392;28;19913;-89
2022/05/14 09:59:17;;;;;;;;;;;24.70;99.90;;;;;;4999178;28;20159;-88
2022/05/14 10:01:48;;;;;;;;;;;24.90;99.90;;;;;;4999380;28;20097;-90
2022/05/14 10:04:30;;;;;;;;;;;25.10;99.90;;;;;;4990225;28;19916;-88
2022/05/14 10:06:58;;;;;;;;;;;25.30;99.90;;;;;;4990172;28;20160;-88
2022/05/14 10:09:32;;;;;;;;;;;25.40;99.90;;;;;;4979290;28;19937;-89
2022/05/14 10:12:24;;;;;;;;;;;25.50;99.90;;;;;;4997791;28;20441;-89
2022/05/14 10:15:05;;;;;;;;;;;25.60;99.90;;;;;;4960276;28;19997;-88
2022/05/14 10:17:48;;;;;;;;;;;25.60;99.90;;;;;;4987819;28;20277;-89
2022/05/14 10:20:17;;;;;;;;;;;25.70;99.90;;;;;;4990824;28;20028;-88
2022/05/14 10:28:35;;;;;;;;;;;25.40;99.90;;;;;;4990051;28;19957;-87
2022/05/14 10:31:19;;;;;;;;;;;25.50;99.90;;;;;;4992142;28;20368;-91
2022/05/14 10:33:47;;;;;;;;;;;25.60;99.90;;;;;;5001846;28;20078;-89
2022/05/14 10:36:25;;;;;;;;;;;25.80;99.80;;;;;;5000764;28;19909;-90
2022/05/14 10:38:57;;;;;;;;;;;26.00;99.40;;;;;;5000046;28;19906;-92
2022/05/14 10:41:27;;;;;;;;;;;26.10;99.70;;;;;;4987059;28;19932;-90
2022/05/14 10:44:03;;;;;;;;;;;26.20;99.20;;;;;;4977888;28;19914;-89
2022/05/14 10:46:29;;;;;;;;;;;26.30;99.20;;;;;;5000661;28;19988;-88
2022/05/14 10:49:11;;;;;;;;;;;26.50;98.90;;;;;;5001114;28;19906;-91
2022/05/14 10:51:45;;;;;;;;;;;26.60;98.70;;;;;;4998019;28;19926;-91
2022/05/14 10:54:15;;;;;;;;;;;26.80;98.70;;;;;;5000804;28;20148;-89
2022/05/14 10:56:50;;;;;;;;;;;26.80;98.30;;;;;;4999357;28;19938;-79
2022/05/14 10:59:27;;;;;;;;;;;26.90;97.90;;;;;;5000749;28;19906;-79
2022/05/14 11:01:52;;;;;;;;;;;26.80;98.20;;;;;;5001012;28;20221;-79
2022/05/14 11:04:22;;;;;;;;;;;26.90;98.10;;;;;;5001155;28;19905;-80
2022/05/14 11:06:54;;;;;;;;;;;27.00;98.10;;;;;;5000668;28;19929;-79
2022/05/14 11:09:32;;;;;;;;;;;27.00;98.10;;;;;;5001305;28;19906;-79
2022/05/14 11:11:59;;;;;;;;;;;27.10;97.80;;;;;;4996087;28;19913;-79
2022/05/14 11:14:35;;;;;;;;;;;27.30;97.70;;;;;;5001079;28;19912;-79
2022/05/14 11:17:01;;;;;;;;;;;27.30;97.40;;;;;;4999703;28;19906;-79
2022/05/14 11:19:30;;;;;;;;;;;27.40;97.40;;;;;;5000784;28;19906;-80
2022/05/14 11:21:56;;;;;;;;;;;27.60;97.40;;;;;;5000823;28;19913;-79
2022/05/14 11:24:33;;;;;;;;;;;27.70;97.00;;;;;;5001636;28;19952;-79
2022/05/14 11:26:59;;;;;;;;;;;27.90;97.10;;;;;;5000513;28;20383;-79
2022/05/14 11:29:27;;;;;;;;;;;28.10;96.90;;;;;;5000955;28;20146;-79
2022/05/14 11:32:10;;;;;;;;;;;28.20;96.80;;;;;;5004226;28;19914;-79
2022/05/14 11:34:36;;;;;;;;;;;28.40;95.70;;;;;;5004507;28;19906;-79
2022/05/14 11:37:03;;;;;;;;;;;28.60;96.00;;;;;;5004257;28;19906;-79
2022/05/14 11:39:30;;;;;;;;;;;28.70;95.90;;;;;;4983553;28;19960;-78
2022/05/14 11:42:10;;;;;;;;;;;28.80;95.60;;;;;;4995637;28;19918;-79
2022/05/14 11:44:45;;;;;;;;;;;28.90;95.70;;;;;;5004569;28;19913;-79
2022/05/14 11:47:41;;;;;;;;;;;29.10;95.50;;;;;;4995872;28;20101;-79
2022/05/14 11:50:07;;;;;;;;;;;29.10;95.10;;;;;;4977229;28;19917;-79
2022/05/14 11:52:50;;;;;;;;;;;29.10;95.30;;;;;;5001029;28;19918;-79
2022/05/14 11:55:23;;;;;;;;;;;29.20;95.40;;;;;;5003992;28;20005;-79
2022/05/14 11:58:11;;;;;;;;;;;29.40;95.30;;;;;;5005215;28;19906;-79
2022/05/14 12:00:37;;;;;;;;;;;29.60;95.30;;;;;;5000895;28;19913;-79
2022/05/14 12:03:03;;;;;;;;;;;29.80;94.70;;;;;;5004951;28;20113;-79
2022/05/14 12:05:28;;;;;;;;;;;29.70;94.10;;;;;;5005718;28;19941;-79
2022/05/14 12:07:54;;;;;;;;;;;29.70;94.10;;;;;;5005245;28;19910;-79
2022/05/14 12:10:38;;;;;;;;;;;29.80;93.70;;;;;;5005253;28;19905;-79
2022/05/14 12:13:11;;;;;;;;;;;29.90;93.80;;;;;;5005056;28;19906;-79
2022/05/14 12:15:45;;;;;;;;;;;29.70;93.80;;;;;;5005537;28;19951;-78
2022/05/14 12:18:11;;;;;;;;;;;29.40;93.70;;;;;;4988029;28;20197;-79
2022/05/14 12:20:37;;;;;;;;;;;29.60;93.60;;;;;;5005105;28;19906;-83
2022/05/14 12:23:04;;;;;;;;;;;29.80;93.50;;;;;;5004973;28;20264;-81
2022/05/14 12:25:48;;;;;;;;;;;30.00;93.30;;;;;;5004962;28;19945;-78
2022/05/14 12:28:31;;;;;;;;;;;30.30;93.60;;;;;;5001849;28;20120;-78
2022/05/14 12:34:02;;;;;;;;;;;31.20;92.50;;;;;;5004450;28;19988;-80
2022/05/14 12:36:32;;;;;;;;;;;31.10;92.30;;;;;;5004258;28;19906;-79
2022/05/14 12:38:58;;;;;;;;;;;31.20;91.60;;;;;;5004769;28;19937;-79
2022/05/14 12:41:27;;;;;;;;;;;31.20;91.00;;;;;;4998312;28;19909;-79
2022/05/14 12:43:53;;;;;;;;;;;31.20;90.80;;;;;;5004793;28;19928;-89
2022/05/14 12:46:19;;;;;;;;;;;30.80;90.90;;;;;;5003793;28;19910;-89
2022/05/14 12:48:49;;;;;;;;;;;31.10;90.80;;;;;;4994294;28;19910;-89
2022/05/14 12:51:19;;;;;;;;;;;31.20;90.50;;;;;;4992093;28;20309;-88
2022/05/14 12:53:45;;;;;;;;;;;31.00;90.40;;;;;;4967312;28;20012;-89
2022/05/14 12:56:10;;;;;;;;;;;31.00;90.60;;;;;;4993588;28;20343;-90
2022/05/14 12:58:37;;;;;;;;;;;31.30;89.60;;;;;;4992393;28;19910;-87
2022/05/14 13:01:03;;;;;;;;;;;31.00;90.10;;;;;;4992585;28;19910;-87
2022/05/14 13:03:35;;;;;;;;;;;30.90;90.30;;;;;;4992489;28;20186;-87
2022/05/14 13:06:04;;;;;;;;;;;31.30;90.50;;;;;;4992332;28;19917;-86
2022/05/14 13:08:31;;;;;;;;;;;31.40;90.20;;;;;;4992095;28;19910;-87
2022/05/14 13:10:58;;;;;;;;;;;32.00;90.40;;;;;;4991894;28;19909;-86
2022/05/14 13:13:32;;;;;;;;;;;32.00;88.20;;;;;;4992044;28;19991;-87
2022/05/14 13:15:57;;;;;;;;;;;31.50;87.80;;;;;;4974669;28;19916;-87
2022/05/14 13:18:28;;;;;;;;;;;31.30;88.70;;;;;;4966676;28;21601;-87
2022/05/14 13:20:59;;;;;;;;;;;31.00;89.20;;;;;;4967744;28;19917;-88
2022/05/14 13:23:25;;;;;;;;;;;31.40;89.50;;;;;;4967842;28;19954;-87
2022/05/14 13:26:04;;;;;;;;;;;31.90;89.50;;;;;;4973291;28;20398;-87
2022/05/14 13:28:34;;;;;;;;;;;32.30;89.30;;;;;;4973181;28;20001;-87
2022/05/14 13:31:02;;;;;;;;;;;32.90;89.10;;;;;;4973165;28;20405;-87
2022/05/14 13:33:38;;;;;;;;;;;33.50;86.80;;;;;;4973166;28;19910;-87
2022/05/14 13:39:00;;;;;;;;;;;34.30;83.40;;;;;;4973230;28;19917;-88
2022/05/14 13:41:27;;;;;;;;;;;34.40;83.40;;;;;;4972969;28;19973;-87
2022/05/14 13:43:56;;;;;;;;;;;34.30;82.70;;;;;;4966772;28;19918;-88
2022/05/14 13:46:40;;;;;;;;;;;33.80;83.40;;;;;;4966675;28;19910;-88
2022/05/14 13:49:06;;;;;;;;;;;33.70;82.30;;;;;;4950609;28;20327;-87
2022/05/14 13:51:36;;;;;;;;;;;34.00;81.40;;;;;;4980110;28;19918;-88
2022/05/14 13:54:09;;;;;;;;;;;34.90;80.10;;;;;;4991225;28;20446;-88
2022/05/14 13:56:35;;;;;;;;;;;36.70;78.40;;;;;;4991409;28;19953;-88
2022/05/14 13:59:02;;;;;;;;;;;38.40;77.30;;;;;;4991682;28;20369;-88
2022/05/14 14:01:55;;;;;;;;;;;38.80;75.40;;;;;;4973421;28;19926;-88
2022/05/14 14:04:24;;;;;;;;;;;38.50;75.50;;;;;;4982634;28;20450;-88
2022/05/14 14:07:01;;;;;;;;;;;38.30;75.00;;;;;;4991418;28;19913;-88
2022/05/14 14:09:27;;;;;;;;;;;38.50;74.00;;;;;;4991469;28;20170;-88
2022/05/14 14:11:54;;;;;;;;;;;39.40;74.60;;;;;;4991450;28;20058;-88
2022/05/14 14:14:19;;;;;;;;;;;40.50;72.20;;;;;;4991445;28;19910;-88
2022/05/14 14:16:45;;;;;;;;;;;41.70;71.00;;;;;;4973734;28;19932;-88
2022/05/14 14:19:11;;;;;;;;;;;42.30;69.80;;;;;;4991333;28;19910;-88
2022/05/14 14:21:36;;;;;;;;;;;42.80;68.00;;;;;;4991190;28;19921;-88
2022/05/14 14:24:04;;;;;;;;;;;43.40;66.90;;;;;;4991096;28;19914;-88
2022/05/14 14:26:30;;;;;;;;;;;43.50;65.90;;;;;;4990882;28;20297;-88
2022/05/14 14:28:55;;;;;;;;;;;44.50;64.30;;;;;;4990908;28;19920;-88
2022/05/14 14:31:21;;;;;;;;;;;45.50;61.90;;;;;;4971918;28;19917;-88
2022/05/14 14:33:47;;;;;;;;;;;45.90;61.10;;;;;;4991015;28;19972;-88
2022/05/14 14:36:14;;;;;;;;;;;46.60;59.90;;;;;;4991091;28;20287;-88
2022/05/14 14:38:39;;;;;;;;;;;47.00;58.00;;;;;;4991281;28;19917;-88
2022/05/14 14:41:05;;;;;;;;;;;46.70;56.50;;;;;;4991005;28;19914;-88
2022/05/14 14:43:31;;;;;;;;;;;46.20;56.10;;;;;;4990861;28;20437;-88
2022/05/14 14:45:57;;;;;;;;;;;45.40;55.60;;;;;;4991186;28;19910;-88